Time;durP1;ratioP1;P1;durP2;ratioP2;P2;SDS_P1;SDS_P2;PMS_P1;PMS_P2;Temp;Humidity;BMP_temperature;BMP_pressure;BME280_temperature;BME280_humidity;BME280_pressure;Samples;Min_cycle;Max_cycle;Signal;HPM_P1;HPM_P2
2023/06/08 00:00:09;;;;;;;3.10;2.80;;;;;;;22.74;58.15;101472.44;5026578;28;20033;-85
2023/06/08 00:02:35;;;;;;;3.72;2.90;;;;;;;22.31;58.46;101399.91;5016814;28;20726;-87
2023/06/08 00:05:03;;;;;;;4.72;3.08;;;;;;;22.49;58.99;101433.00;5027549;28;20036;-87
2023/06/08 00:07:29;;;;;;;3.45;3.05;;;;;;;22.48;58.17;101428.53;5026886;28;20052;-87
2023/06/08 00:09:56;;;;;;;3.55;2.83;;;;;;;22.43;58.40;101423.13;5030575;28;20514;-87
2023/06/08 00:12:22;;;;;;;4.20;3.13;;;;;;;22.70;58.18;101467.94;5030405;28;20037;-87
2023/06/08 00:14:48;;;;;;;3.22;2.90;;;;;;;22.45;58.26;101424.06;5029097;28;20445;-88
2023/06/08 00:17:14;;;;;;;3.33;2.70;;;;;;;22.68;58.15;101464.34;5029609;28;20025;-87
2023/06/08 00:19:42;;;;;;;3.28;2.90;;;;;;;22.69;58.38;101466.16;5030446;28;20098;-87
2023/06/08 00:22:08;;;;;;;4.05;3.28;;;;;;;22.55;58.48;101444.63;5029424;28;20477;-85
2023/06/08 00:24:37;;;;;;;;;;;;;;;22.69;58.38;101465.22;5028777;28;20052;-88
2023/06/08 00:27:05;;;;;;;4.53;2.70;;;;;;;22.63;58.01;101451.84;5030659;28;19988;-88
2023/06/08 00:29:31;;;;;;;3.97;2.95;;;;;;;22.32;58.40;101407.00;5029059;28;20394;-85
2023/06/08 00:31:57;;;;;;;5.05;2.92;;;;;;;22.45;58.22;101420.50;5030235;28;20029;-84
2023/06/08 00:34:22;;;;;;;3.63;3.00;;;;;;;22.31;58.31;101405.22;5028659;28;20037;-86
2023/06/08 00:36:48;;;;;;;3.17;2.70;;;;;;;22.34;58.15;101404.38;5030265;28;20037;-86
2023/06/08 00:39:13;;;;;;;4.35;3.17;;;;;;;22.20;58.28;101379.28;5033464;28;20091;-85
2023/06/08 00:41:39;;;;;;;4.38;3.10;;;;;;;22.39;58.25;101417.75;5046096;28;20029;-85
2023/06/08 00:44:06;;;;;;;2.72;2.53;;;;;;;22.43;58.45;101416.94;5065808;28;20072;-84
2023/06/08 00:46:32;;;;;;;3.38;3.05;;;;;;;22.35;58.15;101407.06;5034322;28;20535;-87
2023/06/08 00:48:57;;;;;;;3.70;3.10;;;;;;;22.16;58.55;101375.66;5033884;28;20494;-87
2023/06/08 00:51:24;;;;;;;4.30;2.85;;;;;;;22.38;58.31;101408.88;5027310;28;20040;-87
2023/06/08 00:53:50;;;;;;;6.13;3.20;;;;;;;22.42;58.03;101417.81;5020852;28;20033;-88
2023/06/08 00:56:16;;;;;;;4.65;3.10;;;;;;;22.44;58.26;101424.06;5034129;28;20621;-87
2023/06/08 00:58:48;;;;;;;;;;;;;;;22.57;58.14;101439.34;5032914;28;20121;-88
2023/06/08 01:01:17;;;;;;;3.85;2.88;;;;;;;22.53;58.21;101437.50;5031675;28;19921;-87
2023/06/08 01:03:45;;;;;;;3.65;3.17;;;;;;;22.49;58.35;101431.22;5014368;28;20033;-87
2023/06/08 01:06:12;;;;;;;4.10;2.90;;;;;;;22.39;58.43;101413.31;5028228;28;20029;-87
2023/06/08 01:08:42;;;;;;;3.90;3.00;;;;;;;22.51;58.33;101433.91;5033409;28;20033;-87
2023/06/08 01:11:40;;;;;;;3.03;2.72;;;;;;;22.50;58.45;101427.72;5031363;28;20029;-88
2023/06/08 01:14:28;;;;;;;5.10;3.28;;;;;;;22.50;58.31;101425.03;5029499;28;20056;-87
2023/06/08 01:16:56;;;;;;;3.30;2.67;;;;;;;22.34;58.25;101402.59;5023176;28;20029;-87
2023/06/08 01:19:59;;;;;;;3.92;3.03;;;;;;;22.47;58.26;101422.31;5032522;28;20033;-87
2023/06/08 01:22:29;;;;;;;3.15;2.70;;;;;;;22.37;58.13;101404.41;5032100;28;20025;-87
2023/06/08 01:24:59;;;;;;;3.40;2.60;;;;;;;22.33;58.30;101392.84;5065294;28;20021;-86
2023/06/08 01:27:26;;;;;;;3.25;2.85;;;;;;;22.35;58.58;101399.09;5032859;28;20492;-87
2023/06/08 01:29:52;;;;;;;3.40;2.75;;;;;;;22.45;58.19;101410.75;5032032;28;20064;-87
2023/06/08 01:32:19;;;;;;;5.22;3.00;;;;;;;22.30;58.21;101386.56;5031615;28;20104;-87
2023/06/08 01:34:45;;;;;;;6.57;3.10;;;;;;;22.16;58.36;101370.34;5033400;28;20065;-87
2023/06/08 01:37:17;;;;;;;3.10;2.70;;;;;;;22.47;58.35;101421.44;5033149;28;20041;-87
2023/06/08 01:40:05;;;;;;;3.97;2.80;;;;;;;22.46;58.17;101417.88;5033199;28;20035;-86
2023/06/08 01:42:32;;;;;;;4.45;2.50;;;;;;;22.31;58.25;101405.22;5031280;28;20083;-86
2023/06/08 01:45:21;;;;;;;3.42;2.90;;;;;;;22.41;58.50;101432.88;5019228;28;20037;-86
2023/06/08 01:47:57;;;;;;;4.00;2.67;;;;;;;22.37;58.17;101417.72;5027154;28;20037;-87
2023/06/08 01:50:23;;;;;;;3.42;3.08;;;;;;;22.43;58.25;101424.91;5030969;28;20025;-86
2023/06/08 01:52:48;;;;;;;3.10;2.80;;;;;;;22.35;58.15;101423.03;5031156;28;20587;-87
2023/06/08 01:55:17;;;;;;;3.92;2.80;;;;;;;22.43;58.19;101432.91;5033122;28;20041;-87
2023/06/08 01:57:43;;;;;;;2.83;2.63;;;;;;;22.32;58.13;101415.00;5030470;28;20093;-88
2023/06/08 02:00:12;;;;;;;3.13;2.63;;;;;;;21.99;58.26;101364.75;5031878;28;20053;-87
2023/06/08 02:02:37;;;;;;;4.07;2.70;;;;;;;;;;5027644;28;20041;-87
2023/06/08 02:05:07;;;;;;;3.50;2.72;;;;;;;22.17;58.34;101390.75;5032441;28;20060;-87
2023/06/08 02:07:33;;;;;;;4.97;2.80;;;;;;;22.30;58.19;101413.19;5030400;28;20032;-88
2023/06/08 02:09:58;;;;;;;3.85;3.15;;;;;;;22.38;58.05;101429.28;5050891;28;20690;-87
2023/06/08 02:12:26;;;;;;;5.45;3.00;;;;;;;22.11;58.27;101391.56;5009563;28;20049;-89
2023/06/08 02:14:52;;;;;;;3.08;2.78;;;;;;;22.28;58.11;101420.25;5031497;28;20042;-89
2023/06/08 02:17:18;;;;;;;3.78;2.65;;;;;;;21.95;58.37;101366.47;5014789;28;20024;-88
2023/06/08 02:19:46;;;;;;;3.17;2.90;;;;;;;22.13;58.40;101392.47;5032186;28;20084;-89
2023/06/08 02:22:12;;;;;;;2.75;2.50;;;;;;;22.07;58.18;101379.06;5028417;28;20018;-89
2023/06/08 02:24:38;;;;;;;4.60;2.90;;;;;;;21.81;58.08;101327.22;5040125;28;20037;-88
2023/06/08 02:27:03;;;;;;;4.65;3.13;;;;;;;22.24;58.11;101405.09;5032476;28;20026;-89
2023/06/08 02:29:29;;;;;;;3.85;2.97;;;;;;;22.02;58.21;101371.91;5031051;28;20107;-88
2023/06/08 02:31:55;;;;;;;3.25;2.95;;;;;;;22.22;58.20;101409.47;5031426;28;20025;-89
2023/06/08 02:34:20;;;;;;;4.03;2.75;;;;;;;21.79;57.99;101348.47;5047933;28;20523;-88
2023/06/08 02:36:47;;;;;;;3.50;2.83;;;;;;;22.07;58.00;101387.03;5010437;28;20034;-88
2023/06/08 02:39:14;;;;;;;3.35;3.03;;;;;;;22.26;58.13;101417.53;5025218;28;20060;-88
2023/06/08 02:41:40;;;;;;;3.80;2.63;;;;;;;22.07;58.14;101384.38;5031076;28;20037;-88
2023/06/08 02:44:06;;;;;;;4.03;2.63;;;;;;;21.89;58.08;101357.50;5030139;28;20033;-88
2023/06/08 02:46:32;;;;;;;3.15;2.55;;;;;;;22.12;58.07;101403.13;5031067;28;20109;-88
2023/06/08 02:48:58;;;;;;;4.78;3.08;;;;;;;22.28;57.89;101434.44;5031633;28;20087;-88
2023/06/08 02:51:24;;;;;;;4.07;2.95;;;;;;;22.13;57.94;101419.06;5062082;28;20370;-89
2023/06/08 02:53:50;;;;;;;3.03;2.72;;;;;;;21.96;57.95;101388.63;5031708;28;20037;-88
2023/06/08 02:56:16;;;;;;;2.80;2.47;;;;;;;22.05;57.83;101409.19;5007291;28;20022;-88
2023/06/08 02:58:46;;;;;;;5.05;2.92;;;;;;;21.95;57.92;101390.41;5025082;28;20549;-89
2023/06/08 03:01:14;;;;;;;3.33;3.03;;;;;;;22.16;57.89;101424.47;5031945;28;20037;-89
2023/06/08 03:03:42;;;;;;;4.03;2.90;;;;;;;22.04;57.90;101404.75;5028012;28;20095;-88
2023/06/08 03:06:09;;;;;;;3.88;2.80;;;;;;;21.73;57.88;101351.91;5036618;28;20041;-88
2023/06/08 03:08:41;;;;;;;3.58;2.72;;;;;;;22.01;57.65;101391.38;5028627;28;20396;-88
2023/06/08 03:11:07;;;;;;;3.92;2.67;;;;;;;22.24;57.63;101442.34;5046467;28;20677;-89
2023/06/08 03:13:33;;;;;;;4.22;2.65;;;;;;;21.71;57.71;101364.28;5029319;28;20060;-88
2023/06/08 03:15:59;;;;;;;5.25;2.83;;;;;;;22.03;58.17;101419.78;5029866;28;20503;-88
2023/06/08 03:18:24;;;;;;;4.57;3.05;;;;;;;21.64;57.59;101354.41;5027937;28;20797;-84
2023/06/08 03:20:53;;;;;;;3.95;3.00;;;;;;;21.81;57.75;101373.31;5029165;28;20116;-85
2023/06/08 03:23:20;;;;;;;3.33;2.67;;;;;;;22.04;57.82;101429.56;5028227;28;20033;-84
2023/06/08 03:25:49;;;;;;;3.40;2.67;;;;;;;22.17;57.79;101447.53;5028266;28;20037;-84
2023/06/08 03:28:18;;;;;;;3.78;2.65;;;;;;;22.07;57.63;101428.72;5027766;28;20048;-84
2023/06/08 03:30:44;;;;;;;3.38;2.83;;;;;;;22.16;57.56;101451.06;5024768;28;20504;-84
2023/06/08 03:33:11;;;;;;;;;;;;;;;22.20;57.54;101454.66;5027015;28;20033;-83
2023/06/08 03:35:37;;;;;;;3.15;2.70;;;;;;;21.93;57.75;101416.09;5030265;28;19924;-83
2023/06/08 03:38:03;;;;;;;;;;;;;;;22.19;57.80;101462.63;5057240;28;20057;-84
2023/06/08 03:40:28;;;;;;;3.20;2.58;;;;;;;22.13;57.77;101458.09;5026847;28;19959;-83
2023/06/08 03:42:54;;;;;;;3.42;2.63;;;;;;;22.09;57.72;101454.47;5027659;28;20113;-84
2023/06/08 03:45:20;;;;;;;2.78;2.58;;;;;;;22.10;57.94;101453.63;5027352;28;20106;-83
2023/06/08 03:47:46;;;;;;;3.05;2.70;;;;;;;22.01;58.00;101445.44;5029012;28;20409;-84
2023/06/08 03:50:14;;;;;;;3.03;2.70;;;;;;;22.05;57.89;101463.25;5027961;28;20485;-83
2023/06/08 03:52:40;;;;;;;3.80;2.80;;;;;;;22.09;58.12;101475.75;5023195;28;20061;-84
2023/06/08 03:55:11;;;;;;;3.28;2.78;;;;;;;22.09;57.88;101467.78;5053299;28;20408;-85
2023/06/08 03:57:37;;;;;;;2.40;2.20;;;;;;;22.05;57.92;101452.63;5025520;28;20455;-84
2023/06/08 04:00:07;;;;;;;3.40;2.70;;;;;;;21.89;58.11;101431.97;5015712;28;20072;-83
2023/06/08 04:02:32;;;;;;;3.45;2.63;;;;;;;22.03;58.25;101456.13;5026386;28;20508;-84
2023/06/08 04:04:59;;;;;;;2.97;2.65;;;;;;;21.88;58.06;101422.19;5019280;28;20033;-84
2023/06/08 04:07:26;;;;;;;3.45;2.97;;;;;;;22.05;58.41;101452.63;5027220;28;20037;-83
2023/06/08 04:09:52;;;;;;;3.90;2.95;;;;;;;21.96;58.76;101458.69;5028451;28;20036;-85
2023/06/08 04:12:17;;;;;;;4.07;3.00;;;;;;;21.92;59.20;101450.63;5026402;28;20029;-84
2023/06/08 04:14:43;;;;;;;5.00;2.78;;;;;;;21.98;58.53;101457.81;5022448;28;20145;-84
2023/06/08 04:17:09;;;;;;;4.07;2.83;;;;;;;21.84;58.89;101437.16;5024472;28;20462;-84
2023/06/08 04:19:35;;;;;;;3.70;2.75;;;;;;;21.96;58.87;101464.00;5053288;28;20044;-84
2023/06/08 04:22:00;;;;;;;3.42;2.78;;;;;;;21.86;58.91;101443.41;5027599;28;20432;-84
2023/06/08 04:24:28;;;;;;;3.10;2.80;;;;;;;21.94;59.31;101457.75;5026273;28;20040;-80
2023/06/08 04:26:55;;;;;;;3.35;2.92;;;;;;;21.95;59.02;101459.56;5028853;28;20029;-81
2023/06/08 04:29:21;;;;;;;4.00;2.78;;;;;;;21.91;59.13;101457.72;5052449;28;20033;-81
2023/06/08 04:31:47;;;;;;;2.97;2.67;;;;;;;21.91;59.47;101462.13;5028261;28;20616;-84
2023/06/08 04:34:12;;;;;;;3.72;2.88;;;;;;;21.78;59.60;101444.13;5019679;28;20037;-84
2023/06/08 04:36:42;;;;;;;3.25;2.95;;;;;;;21.67;59.35;101420.00;5024997;28;20029;-83
2023/06/08 04:39:08;;;;;;;3.17;2.80;;;;;;;21.84;59.96;101450.47;5022465;28;20044;-84
2023/06/08 04:41:34;;;;;;;3.30;2.80;;;;;;;21.81;59.66;101446.88;5028383;28;20034;-84
2023/06/08 04:44:01;;;;;;;;;;;;;;;21.94;60.06;101467.50;5043035;28;20029;-84
2023/06/08 04:46:29;;;;;;;3.40;2.90;;;;;;;21.80;59.59;101451.31;5025186;28;19917;-85
2023/06/08 04:48:55;;;;;;;3.30;2.88;;;;;;;21.93;59.87;101476.38;5028761;28;20025;-86
2023/06/08 04:51:23;;;;;;;3.83;3.17;;;;;;;21.83;59.43;101461.97;5028509;28;20083;-85
2023/06/08 04:53:51;;;;;;;3.20;2.78;;;;;;;21.91;59.90;101476.31;5029478;28;20061;-84
2023/06/08 04:56:18;;;;;;;3.78;2.80;;;;;;;21.73;60.30;101446.72;5057485;28;20026;-85
2023/06/08 04:58:45;;;;;;;3.70;2.83;;;;;;;21.92;59.55;101480.75;5020503;28;20033;-85
2023/06/08 05:01:11;;;;;;;2.58;2.38;;;;;;;21.83;59.59;101463.75;5027967;28;20500;-85
2023/06/08 05:03:37;;;;;;;4.15;2.85;;;;;;;21.82;59.97;101454.84;5027647;28;20029;-85
2023/06/08 05:06:02;;;;;;;4.68;3.45;;;;;;;21.76;60.59;101446.78;5025864;28;20045;-84
2023/06/08 05:08:31;;;;;;;3.53;3.00;;;;;;;21.63;60.18;101427.06;5026561;28;20042;-84
2023/06/08 05:10:56;;;;;;;3.42;3.03;;;;;;;21.84;59.90;101462.88;5052977;28;20037;-85
2023/06/08 05:13:22;;;;;;;3.20;2.90;;;;;;;21.52;59.60;101402.91;5026379;28;20045;-84
2023/06/08 05:15:47;;;;;;;3.50;2.60;;;;;;;21.80;60.75;101451.31;5022519;28;20030;-83
2023/06/08 05:18:13;;;;;;;3.83;3.10;;;;;;;21.82;60.42;101464.59;5025745;28;20079;-83
2023/06/08 05:20:39;;;;;;;3.72;2.95;;;;;;;21.44;60.97;101403.63;5026299;28;20037;-84
2023/06/08 05:23:04;;;;;;;3.20;2.88;;;;;;;21.82;60.20;101460.19;5022674;28;20030;-83
2023/06/08 05:25:30;;;;;;;3.67;2.83;;;;;;;21.77;60.22;101453.88;5029540;28;20171;-84
2023/06/08 05:27:56;;;;;;;3.40;2.88;;;;;;;21.81;60.88;101463.72;5030322;28;20480;-83
2023/06/08 05:30:21;;;;;;;5.03;3.10;;;;;;;21.75;60.43;101453.84;5024157;28;20083;-85
2023/06/08 05:35:31;;;;;;;3.28;2.90;;;;;;;21.90;60.14;101476.28;5026880;28;20103;-84
2023/06/08 05:37:57;;;;;;;5.78;3.30;;;;;;;21.73;60.44;101452.03;5027447;28;20451;-84
2023/06/08 05:40:24;;;;;;;3.15;2.80;;;;;;;21.66;60.53;101439.50;5024692;28;20527;-84
2023/06/08 05:42:50;;;;;;;3.35;2.80;;;;;;;21.67;60.25;101436.84;5025271;28;20389;-84
2023/06/08 05:45:16;;;;;;;3.80;2.95;;;;;;;21.73;60.36;101444.06;5025438;28;20531;-84
2023/06/08 05:47:42;;;;;;;;;;;;;;;21.92;60.44;101483.41;5030430;28;20755;-84
2023/06/08 05:50:07;;;;;;;2.97;2.67;;;;;;;21.75;60.13;101453.84;5028709;28;19917;-84
2023/06/08 05:52:33;;;;;;;3.40;3.10;;;;;;;21.91;60.08;101480.75;5035252;28;20025;-84
2023/06/08 05:55:00;;;;;;;3.00;2.70;;;;;;;21.90;60.08;101484.25;5027963;28;20080;-83
2023/06/08 05:57:26;;;;;;;4.60;2.95;;;;;;;21.87;59.98;101478.91;5030253;28;20115;-85
2023/06/08 05:59:51;;;;;;;3.40;2.72;;;;;;;21.87;59.96;101486.88;5031800;28;20543;-84
2023/06/08 06:02:17;;;;;;;3.50;3.20;;;;;;;21.75;59.96;101466.25;5063227;28;20104;-84
2023/06/08 06:04:43;;;;;;;3.15;2.72;;;;;;;21.85;59.87;101477.97;5031007;28;20033;-83
2023/06/08 06:07:09;;;;;;;4.53;3.08;;;;;;;21.69;60.09;101450.19;5056334;28;20071;-84
2023/06/08 06:09:34;;;;;;;3.20;2.90;;;;;;;21.93;60.08;101500.28;5025288;28;20049;-84
2023/06/08 06:12:01;;;;;;;3.10;2.78;;;;;;;21.60;60.35;101447.34;5031018;28;20033;-84
2023/06/08 06:14:27;;;;;;;3.60;2.70;;;;;;;21.73;60.20;101455.59;5030535;28;20109;-84
2023/06/08 06:16:53;;;;;;;3.78;3.17;;;;;;;21.52;60.33;101423.28;5031008;28;20034;-83
2023/06/08 06:19:19;;;;;;;3.22;2.92;;;;;;;21.94;60.21;101494.09;5030481;28;20431;-83
2023/06/08 06:21:45;;;;;;;6.38;2.72;;;;;;;21.82;60.07;101473.47;5030266;28;20037;-83
2023/06/08 06:24:10;;;;;;;3.65;3.13;;;;;;;21.60;60.47;101442.03;5030552;28;20021;-84
2023/06/08 06:26:36;;;;;;;3.67;3.00;;;;;;;21.82;60.32;101469.91;5026738;28;20467;-83
2023/06/08 06:29:02;;;;;;;3.30;2.67;;;;;;;21.75;60.22;101456.50;5023132;28;20028;-86
2023/06/08 06:31:28;;;;;;;3.83;2.67;;;;;;;21.95;60.42;101486.16;5029707;28;20789;-87
2023/06/08 06:33:54;;;;;;;4.03;2.78;;;;;;;21.70;60.20;101428.94;5028825;28;20029;-86
2023/06/08 06:36:20;;;;;;;2.97;2.70;;;;;;;21.54;60.71;101409.13;5028353;28;20088;-82
2023/06/08 06:38:46;;;;;;;3.17;2.85;;;;;;;21.92;60.14;101477.22;5030543;28;20065;-86
2023/06/08 06:41:11;;;;;;;4.32;3.10;;;;;;;21.83;60.18;101467.31;5028543;28;20112;-85
2023/06/08 06:43:37;;;;;;;3.75;3.03;;;;;;;21.93;60.41;101476.38;5029475;28;20034;-86
2023/06/08 06:46:03;;;;;;;3.28;2.95;;;;;;;21.82;60.57;101459.28;5028295;28;20443;-86
2023/06/08 06:48:28;;;;;;;3.95;3.10;;;;;;;21.86;60.58;101464.69;5029048;28;20033;-88
2023/06/08 06:50:54;;;;;;;3.65;3.10;;;;;;;21.71;60.83;101438.69;5046807;28;20488;-90
2023/06/08 06:53:19;;;;;;;3.17;2.88;;;;;;;22.00;60.54;101482.69;5029114;28;20051;-87
2023/06/08 06:55:45;;;;;;;3.40;2.97;;;;;;;21.95;60.15;101471.97;5018043;28;20068;-87
2023/06/08 06:58:12;;;;;;;3.63;2.70;;;;;;;21.90;59.97;101466.53;5030216;28;20500;-87
2023/06/08 07:00:39;;;;;;;4.55;3.03;;;;;;;21.90;60.24;101453.25;5029238;28;20118;-87
2023/06/08 07:03:06;;;;;;;3.90;3.05;;;;;;;21.89;60.11;101454.13;5025811;28;20037;-87
2023/06/08 07:05:36;;;;;;;3.65;3.10;;;;;;;22.01;59.99;101468.50;5018673;28;20029;-87
2023/06/08 07:08:02;;;;;;;4.03;2.90;;;;;;;22.01;60.01;101472.03;5020691;28;20037;-88
2023/06/08 07:10:29;;;;;;;4.28;2.67;;;;;;;21.90;60.06;101450.59;5058331;28;20531;-88
2023/06/08 07:12:56;;;;;;;3.10;2.80;;;;;;;21.86;59.81;101443.41;5008425;28;20084;-88
2023/06/08 07:15:22;;;;;;;3.65;2.83;;;;;;;21.89;60.07;101440.81;5059458;28;20479;-87
2023/06/08 07:17:47;;;;;;;3.08;2.58;;;;;;;21.95;59.86;101456.00;5028924;28;20026;-87
2023/06/08 07:20:13;;;;;;;4.40;3.00;;;;;;;22.01;60.01;101460.53;5029635;28;20049;-88
2023/06/08 07:22:39;;;;;;;5.95;2.90;;;;;;;22.11;61.05;101489.09;5027965;28;20423;-87
2023/06/08 07:25:05;;;;;;;;;;;;;;;22.13;59.83;101490.00;5013827;28;20670;-86
2023/06/08 07:27:31;;;;;;;3.70;2.75;;;;;;;22.08;59.20;101475.75;5029702;28;19927;-86
2023/06/08 07:29:56;;;;;;;4.28;3.30;;;;;;;22.00;59.63;101456.97;5031695;28;20021;-86
2023/06/08 07:32:22;;;;;;;3.40;2.80;;;;;;;21.98;59.22;101458.72;5027069;28;20032;-86
2023/06/08 07:34:48;;;;;;;3.47;2.67;;;;;;;22.07;59.01;101466.84;5030150;28;20033;-85
2023/06/08 07:37:14;;;;;;;3.30;2.83;;;;;;;21.84;59.09;101422.97;5063267;28;20045;-86
2023/06/08 07:39:39;;;;;;;3.70;3.05;;;;;;;21.77;59.02;101403.38;5030054;28;20036;-85
2023/06/08 07:42:05;;;;;;;3.30;2.88;;;;;;;21.79;59.03;101408.72;5031662;28;20025;-85
2023/06/08 07:44:31;;;;;;;3.63;3.13;;;;;;;21.74;59.00;101403.34;5032075;28;20509;-85
2023/06/08 07:46:57;;;;;;;3.10;2.80;;;;;;;22.19;58.92;101476.81;5028220;28;20041;-85
2023/06/08 07:49:23;;;;;;;3.55;2.97;;;;;;;22.19;58.94;101482.16;5026667;28;20035;-85
2023/06/08 07:51:50;;;;;;;3.10;2.80;;;;;;;22.21;58.66;101492.81;5021998;28;20033;-85
2023/06/08 07:54:19;;;;;;;3.10;2.80;;;;;;;21.67;58.67;101402.28;5017578;28;20028;-85
2023/06/08 07:56:48;;;;;;;3.55;2.75;;;;;;;21.83;58.68;101432.72;5029012;28;20033;-86
2023/06/08 07:59:13;;;;;;;3.85;2.92;;;;;;;21.80;58.65;101419.41;5030526;28;20025;-85
2023/06/08 08:01:39;;;;;;;6.10;3.17;;;;;;;22.02;58.44;101452.59;5029504;28;20029;-86
2023/06/08 08:04:05;;;;;;;3.33;3.03;;;;;;;22.02;58.59;101452.59;5030535;28;20047;-85
2023/06/08 08:06:30;;;;;;;4.68;2.67;;;;;;;22.14;58.63;101467.88;5037849;28;20068;-85
2023/06/08 08:08:56;;;;;;;4.20;2.80;;;;;;;22.16;58.67;101479.41;5030655;28;20033;-84
2023/06/08 08:11:21;;;;;;;6.20;2.85;;;;;;;22.08;58.49;101473.97;5030456;28;20053;-84
2023/06/08 08:13:47;;;;;;;4.45;2.90;;;;;;;22.07;58.50;101463.28;5029688;28;20045;-84
2023/06/08 08:16:17;;;;;;;6.75;3.25;;;;;;;22.26;58.54;101489.38;5030318;28;20065;-85
2023/06/08 08:18:42;;;;;;;4.03;2.85;;;;;;;21.85;58.43;101412.38;5045951;28;20124;-84
2023/06/08 08:21:08;;;;;;;5.15;3.20;;;;;;;21.77;58.20;101405.16;5030427;28;20112;-85
2023/06/08 08:23:34;;;;;;;4.15;2.88;;;;;;;22.19;58.52;101476.81;5029754;28;20079;-84
2023/06/08 08:25:59;;;;;;;5.60;3.10;;;;;;;21.93;58.70;101434.69;5030391;28;20041;-85
2023/06/08 08:28:25;;;;;;;6.22;3.03;;;;;;;22.14;58.69;101466.09;5029803;28;20021;-85
2023/06/08 08:30:51;;;;;;;7.07;3.30;;;;;;;22.28;58.89;101484.97;5029084;28;20033;-86
2023/06/08 08:33:16;;;;;;;5.85;3.30;;;;;;;21.95;58.89;101422.31;5029105;28;20032;-85
2023/06/08 08:35:42;;;;;;;6.13;3.15;;;;;;;22.09;59.08;101443.81;5029147;28;20025;-85
2023/06/08 08:38:07;;;;;;;7.70;3.40;;;;;;;22.24;59.08;101469.84;5029943;28;20353;-85
2023/06/08 08:40:33;;;;;;;6.47;3.17;;;;;;;22.32;59.59;101486.84;5029395;28;20048;-86
2023/06/08 08:43:07;;;;;;;7.18;3.25;;;;;;;22.35;59.59;101478.91;5030014;28;20550;-86
2023/06/08 08:45:34;;;;;;;5.40;3.28;;;;;;;21.92;59.87;101402.75;5028979;28;20036;-86
2023/06/08 08:48:01;;;;;;;8.13;3.40;;;;;;;22.33;59.83;101467.34;5028672;28;20049;-85
2023/06/08 08:50:29;;;;;;;12.02;3.88;;;;;;;22.27;60.11;101463.69;5029160;28;20038;-85
2023/06/08 08:52:56;;;;;;;8.30;3.38;;;;;;;22.34;60.28;101474.44;5028595;28;20064;-85
2023/06/08 08:55:27;;;;;;;9.73;3.92;;;;;;;22.17;61.08;101441.31;5029164;28;20029;-85
2023/06/08 08:58:02;;;;;;;9.15;3.83;;;;;;;22.23;60.83;101452.09;5062421;28;20484;-85
2023/06/08 09:00:31;;;;;;;7.63;3.70;;;;;;;22.42;60.35;101473.72;5065796;28;20039;-87
2023/06/08 09:02:56;;;;;;;7.60;3.47;;;;;;;22.10;60.48;101420.81;5032556;28;20022;-88
2023/06/08 09:05:22;;;;;;;9.20;3.92;;;;;;;22.35;60.60;101462.03;5033511;28;20029;-88
2023/06/08 09:07:48;;;;;;;13.32;4.25;;;;;;;22.12;60.80;101413.75;5034089;28;20420;-88
2023/06/08 09:10:18;;;;;;;7.55;3.63;;;;;;;22.33;60.81;101455.78;5033779;28;20026;-87
2023/06/08 09:12:46;;;;;;;7.03;3.47;;;;;;;22.46;60.73;101475.53;5032756;28;20124;-86
2023/06/08 09:15:16;;;;;;;7.57;3.38;;;;;;;22.33;60.38;101446.06;5040573;28;20045;-88
2023/06/08 09:17:44;;;;;;;9.85;3.67;;;;;;;22.50;61.01;101482.69;5014174;28;20041;-87
2023/06/08 09:20:11;;;;;;;7.68;3.60;;;;;;;22.41;60.81;101467.47;5025045;28;20579;-87
2023/06/08 09:22:41;;;;;;;7.53;3.80;;;;;;;22.25;61.06;101431.72;5047914;28;20032;-87
2023/06/08 09:25:07;;;;;;;6.20;3.50;;;;;;;22.31;60.60;101442.47;5032338;28;20032;-87
2023/06/08 09:27:33;;;;;;;8.65;3.55;;;;;;;22.54;61.08;101471.22;5033428;28;20083;-87
2023/06/08 09:30:00;;;;;;;;;;;;;;;22.56;60.94;101469.47;5029403;28;20679;-87
2023/06/08 09:32:36;;;;;;;8.30;3.70;;;;;;;22.28;60.82;101412.25;5032386;28;19917;-88
2023/06/08 09:35:02;;;;;;;;;;;;;;;22.60;60.63;101457.13;5032765;28;20075;-89
2023/06/08 09:37:33;;;;;;;7.95;3.80;;;;;;;22.28;60.92;101415.81;5012218;28;19917;-90
2023/06/08 09:40:00;;;;;;;5.65;3.50;;;;;;;22.28;60.97;101415.81;5064436;28;20100;-89
2023/06/08 09:42:50;;;;;;;8.18;3.75;;;;;;;22.25;60.81;101407.78;5032719;28;20084;-90
2023/06/08 09:45:18;;;;;;;6.65;3.65;;;;;;;22.43;60.91;101427.56;5016266;28;20071;-89
2023/06/08 09:47:43;;;;;;;9.68;4.10;;;;;;;22.42;61.12;101429.34;5065031;28;20033;-88
2023/06/08 09:50:10;;;;;;;6.75;3.85;;;;;;;22.54;61.21;101442.84;5065513;28;20029;-88
2023/06/08 09:52:37;;;;;;;9.25;3.95;;;;;;;22.63;61.00;101449.19;5032019;28;20033;-88
2023/06/08 09:55:03;;;;;;;6.03;3.60;;;;;;;22.55;60.90;101433.09;5065595;28;20056;-87
2023/06/08 09:57:33;;;;;;;5.80;3.38;;;;;;;22.66;60.97;101446.56;5031944;28;20025;-87
2023/06/08 10:00:25;;;;;;;7.40;3.83;;;;;;;22.68;60.83;101447.47;5065465;28;20036;-88
2023/06/08 10:02:57;;;;;;;6.68;3.30;;;;;;;22.66;61.02;101443.91;5044472;28;20053;-87
2023/06/08 10:05:24;;;;;;;11.00;3.88;;;;;;;22.50;61.05;101411.72;5031817;28;20072;-87
2023/06/08 10:07:54;;;;;;;6.80;3.28;;;;;;;22.59;60.82;101424.28;5031820;28;20029;-86
2023/06/08 10:10:22;;;;;;;5.68;3.50;;;;;;;22.46;60.98;101404.56;5029990;28;20029;-87
2023/06/08 10:12:48;;;;;;;9.27;3.70;;;;;;;22.71;61.17;101444.84;5030510;28;20025;-86
2023/06/08 10:15:15;;;;;;;7.57;3.75;;;;;;;22.61;60.83;101422.53;5063477;28;20045;-86
2023/06/08 10:17:41;;;;;;;7.38;3.80;;;;;;;22.58;61.06;101406.50;5031124;28;20025;-86
2023/06/08 10:20:06;;;;;;;;;;;;;;;22.73;60.90;101429.78;5030855;28;20029;-86
2023/06/08 10:22:35;;;;;;;8.20;3.60;;;;;;;22.69;61.27;101419.97;5030504;28;19913;-85
2023/06/08 10:25:03;;;;;;;7.00;3.92;;;;;;;22.69;61.26;101417.31;5030522;28;20040;-87
2023/06/08 10:27:30;;;;;;;8.27;3.67;;;;;;;22.62;61.20;101403.03;5030392;28;20021;-87
2023/06/08 10:29:57;;;;;;;6.32;3.83;;;;;;;22.76;61.79;101422.75;5030483;28;20510;-87
2023/06/08 10:32:31;;;;;;;9.05;3.95;;;;;;;22.55;62.02;101382.53;5063345;28;20017;-87
2023/06/08 10:34:58;;;;;;;7.03;3.92;;;;;;;22.77;62.06;101419.25;5031161;28;20029;-87
2023/06/08 10:37:28;;;;;;;5.97;3.70;;;;;;;22.64;62.25;101382.63;5030696;28;20017;-87
2023/06/08 10:39:54;;;;;;;7.40;3.67;;;;;;;22.80;62.15;101407.72;5030471;28;20381;-89
2023/06/08 10:42:19;;;;;;;9.15;4.13;;;;;;;22.70;63.13;101388.06;5052740;28;20547;-89
2023/06/08 10:45:07;;;;;;;8.95;3.97;;;;;;;22.79;62.72;101411.25;5028677;28;20040;-88
2023/06/08 10:47:33;;;;;;;;;;;;;;;22.81;63.49;101412.16;5033708;28;20534;-88
2023/06/08 10:50:05;;;;;;;8.80;4.25;;;;;;;22.84;63.37;101403.31;5013716;28;19917;-89
2023/06/08 10:52:46;;;;;;;8.55;3.78;;;;;;;22.77;63.53;101381.97;5031498;28;20108;-86
2023/06/08 10:55:13;;;;;;;7.65;3.97;;;;;;;22.85;62.80;101397.13;5031307;28;20033;-87
2023/06/08 10:57:45;;;;;;;8.25;3.83;;;;;;;22.85;63.20;101397.13;5046449;28;20029;-87
2023/06/08 11:00:31;;;;;;;7.10;3.88;;;;;;;22.88;62.56;101397.16;5029479;28;20032;-88
2023/06/08 11:03:01;;;;;;;7.35;4.13;;;;;;;22.62;62.71;101355.09;5031022;28;20040;-87
2023/06/08 11:05:31;;;;;;;7.65;3.78;;;;;;;22.78;62.63;101382.84;5029729;28;20041;-87
2023/06/08 11:07:57;;;;;;;7.72;4.10;;;;;;;22.83;62.71;101388.22;5029971;28;20488;-87
2023/06/08 11:10:23;;;;;;;6.05;3.83;;;;;;;22.83;62.24;101381.13;5030017;28;20024;-87
2023/06/08 11:12:49;;;;;;;8.40;3.97;;;;;;;22.81;62.57;101374.00;5029864;28;20637;-87
2023/06/08 11:15:16;;;;;;;7.45;3.72;;;;;;;22.80;62.03;101364.25;5031396;28;20053;-87
2023/06/08 11:17:57;;;;;;;6.05;3.80;;;;;;;22.98;62.43;101388.41;5031134;28;20037;-87
2023/06/08 11:20:27;;;;;;;7.80;3.78;;;;;;;22.96;62.16;101377.78;5014108;28;20492;-85
2023/06/08 11:22:53;;;;;;;5.43;3.58;;;;;;;22.73;62.02;101336.59;5029399;28;20104;-87
2023/06/08 11:25:20;;;;;;;4.15;3.65;;;;;;;23.02;62.26;101389.41;5030970;28;20052;-87
2023/06/08 11:27:45;;;;;;;8.23;3.70;;;;;;;23.04;61.68;101393.88;5014478;28;20033;-87
2023/06/08 11:30:18;;;;;;;8.30;3.90;;;;;;;23.05;61.80;101385.00;5031336;28;20030;-87
2023/06/08 11:32:46;;;;;;;6.43;3.80;;;;;;;23.04;61.94;101388.53;5030673;28;20037;-87